sensor_id;sensor_type;location;lat;lon;timestamp;temperature;humidity
18906;DHT22;9585;51.018;4.282;2023-07-09T00:01:23;21.50;99.90
18906;DHT22;9585;51.018;4.282;2023-07-09T00:03:52;21.40;99.90
18906;DHT22;9585;51.018;4.282;2023-07-09T00:06:20;21.30;99.90
18906;DHT22;9585;51.018;4.282;2023-07-09T00:08:47;21.20;99.90
18906;DHT22;9585;51.018;4.282;2023-07-09T00:11:16;21.10;99.90
18906;DHT22;9585;51.018;4.282;2023-07-09T00:13:43;21.00;99.90
18906;DHT22;9585;51.018;4.282;2023-07-09T00:16:14;21.00;99.90
18906;DHT22;9585;51.018;4.282;2023-07-09T00:18:42;21.00;99.90
18906;DHT22;9585;51.018;4.282;2023-07-09T00:21:12;21.00;99.90
18906;DHT22;9585;51.018;4.282;2023-07-09T00:23:40;21.00;99.90
18906;DHT22;9585;51.018;4.282;2023-07-09T00:26:09;21.00;99.90
18906;DHT22;9585;51.018;4.282;2023-07-09T00:28:37;21.00;99.90
18906;DHT22;9585;51.018;4.282;2023-07-09T00:31:04;21.00;99.90
18906;DHT22;9585;51.018;4.282;2023-07-09T00:33:32;21.00;99.90
18906;DHT22;9585;51.018;4.282;2023-07-09T00:36:00;20.90;99.90
18906;DHT22;9585;51.018;4.282;2023-07-09T00:38:29;20.90;99.90
18906;DHT22;9585;51.018;4.282;2023-07-09T00:41:04;20.90;99.90
18906;DHT22;9585;51.018;4.282;2023-07-09T00:43:34;20.80;99.90
18906;DHT22;9585;51.018;4.282;2023-07-09T00:49:01;20.80;99.90
18906;DHT22;9585;51.018;4.282;2023-07-09T00:51:33;20.70;99.90
18906;DHT22;9585;51.018;4.282;2023-07-09T00:54:07;20.70;99.90
18906;DHT22;9585;51.018;4.282;2023-07-09T00:56:43;20.70;99.90
18906;DHT22;9585;51.018;4.282;2023-07-09T00:59:15;20.60;99.90
18906;DHT22;9585;51.018;4.282;2023-07-09T01:01:44;20.60;99.90
18906;DHT22;9585;51.018;4.282;2023-07-09T01:04:13;20.60;99.90
18906;DHT22;9585;51.018;4.282;2023-07-09T01:06:45;20.60;99.90
18906;DHT22;9585;51.018;4.282;2023-07-09T01:09:17;20.60;99.90
18906;DHT22;9585;51.018;4.282;2023-07-09T01:11:45;20.50;99.90
18906;DHT22;9585;51.018;4.282;2023-07-09T01:14:14;20.40;99.90
18906;DHT22;9585;51.018;4.282;2023-07-09T01:16:48;20.40;99.90
18906;DHT22;9585;51.018;4.282;2023-07-09T01:19:23;20.50;99.90
18906;DHT22;9585;51.018;4.282;2023-07-09T01:21:54;20.50;99.90
18906;DHT22;9585;51.018;4.282;2023-07-09T01:24:47;20.50;99.90
18906;DHT22;9585;51.018;4.282;2023-07-09T01:27:17;20.40;99.90
18906;DHT22;9585;51.018;4.282;2023-07-09T01:29:45;20.40;99.90
18906;DHT22;9585;51.018;4.282;2023-07-09T01:32:15;20.40;99.90
18906;DHT22;9585;51.018;4.282;2023-07-09T01:34:45;20.40;99.90
18906;DHT22;9585;51.018;4.282;2023-07-09T01:37:17;20.40;99.90
18906;DHT22;9585;51.018;4.282;2023-07-09T01:39:47;20.40;99.90
18906;DHT22;9585;51.018;4.282;2023-07-09T01:42:15;20.40;99.90
18906;DHT22;9585;51.018;4.282;2023-07-09T01:44:44;20.50;99.90
18906;DHT22;9585;51.018;4.282;2023-07-09T01:47:12;20.50;99.90
18906;DHT22;9585;51.018;4.282;2023-07-09T01:49:41;20.50;99.90
18906;DHT22;9585;51.018;4.282;2023-07-09T01:52:13;20.50;99.90
18906;DHT22;9585;51.018;4.282;2023-07-09T01:54:44;20.50;99.90
18906;DHT22;9585;51.018;4.282;2023-07-09T01:57:17;20.40;99.90
18906;DHT22;9585;51.018;4.282;2023-07-09T01:59:49;20.40;99.90
18906;DHT22;9585;51.018;4.282;2023-07-09T02:02:17;20.40;99.90
18906;DHT22;9585;51.018;4.282;2023-07-09T02:04:46;20.50;99.90
18906;DHT22;9585;51.018;4.282;2023-07-09T02:07:15;20.40;99.90
18906;DHT22;9585;51.018;4.282;2023-07-09T02:09:44;20.50;99.90
18906;DHT22;9585;51.018;4.282;2023-07-09T02:12:13;20.50;99.90
18906;DHT22;9585;51.018;4.282;2023-07-09T02:14:42;20.50;99.90
18906;DHT22;9585;51.018;4.282;2023-07-09T02:17:12;20.50;99.90
18906;DHT22;9585;51.018;4.282;2023-07-09T02:19:41;20.60;99.90
18906;DHT22;9585;51.018;4.282;2023-07-09T02:22:09;20.60;99.90
18906;DHT22;9585;51.018;4.282;2023-07-09T02:24:38;20.60;99.90
18906;DHT22;9585;51.018;4.282;2023-07-09T02:27:09;20.60;99.90
18906;DHT22;9585;51.018;4.282;2023-07-09T02:29:37;20.60;99.90
18906;DHT22;9585;51.018;4.282;2023-07-09T02:32:05;20.50;99.90
18906;DHT22;9585;51.018;4.282;2023-07-09T02:34:34;20.50;99.90
18906;DHT22;9585;51.018;4.282;2023-07-09T02:37:02;20.50;99.90
18906;DHT22;9585;51.018;4.282;2023-07-09T02:39:30;20.50;99.90
18906;DHT22;9585;51.018;4.282;2023-07-09T02:41:57;20.50;99.90
18906;DHT22;9585;51.018;4.282;2023-07-09T02:44:27;20.60;99.90
18906;DHT22;9585;51.018;4.282;2023-07-09T02:46:54;20.60;99.90
18906;DHT22;9585;51.018;4.282;2023-07-09T02:49:22;20.60;99.90
18906;DHT22;9585;51.018;4.282;2023-07-09T02:51:50;20.50;99.90
18906;DHT22;9585;51.018;4.282;2023-07-09T02:54:17;20.60;99.90
18906;DHT22;9585;51.018;4.282;2023-07-09T02:56:45;20.60;99.90
18906;DHT22;9585;51.018;4.282;2023-07-09T02:59:13;20.50;99.90
18906;DHT22;9585;51.018;4.282;2023-07-09T03:01:42;20.60;99.90
18906;DHT22;9585;51.018;4.282;2023-07-09T03:04:10;20.50;99.90
18906;DHT22;9585;51.018;4.282;2023-07-09T03:06:37;20.40;99.90
18906;DHT22;9585;51.018;4.282;2023-07-09T03:09:06;20.20;99.90
18906;DHT22;9585;51.018;4.282;2023-07-09T03:11:34;20.20;99.90
18906;DHT22;9585;51.018;4.282;2023-07-09T03:14:02;20.20;99.90
18906;DHT22;9585;51.018;4.282;2023-07-09T03:16:33;20.20;99.90
18906;DHT22;9585;51.018;4.282;2023-07-09T03:19:04;20.20;99.90
18906;DHT22;9585;51.018;4.282;2023-07-09T03:21:32;20.20;99.90
18906;DHT22;9585;51.018;4.282;2023-07-09T03:24:01;20.20;99.90
18906;DHT22;9585;51.018;4.282;2023-07-09T03:26:29;20.20;99.90
18906;DHT22;9585;51.018;4.282;2023-07-09T03:28:56;20.20;99.90
18906;DHT22;9585;51.018;4.282;2023-07-09T03:31:26;20.10;99.90
18906;DHT22;9585;51.018;4.282;2023-07-09T03:33:54;20.10;99.90
18906;DHT22;9585;51.018;4.282;2023-07-09T03:36:23;20.00;99.90
18906;DHT22;9585;51.018;4.282;2023-07-09T03:38:51;20.00;99.90
18906;DHT22;9585;51.018;4.282;2023-07-09T03:41:19;20.00;99.90
18906;DHT22;9585;51.018;4.282;2023-07-09T03:43:47;19.90;99.90
18906;DHT22;9585;51.018;4.282;2023-07-09T03:46:17;19.90;99.90
18906;DHT22;9585;51.018;4.282;2023-07-09T03:48:44;19.80;99.90
18906;DHT22;9585;51.018;4.282;2023-07-09T03:51:12;19.80;99.90
18906;DHT22;9585;51.018;4.282;2023-07-09T03:53:41;19.80;99.90
18906;DHT22;9585;51.018;4.282;2023-07-09T03:56:09;19.70;99.90
18906;DHT22;9585;51.018;4.282;2023-07-09T03:58:37;19.70;99.90
18906;DHT22;9585;51.018;4.282;2023-07-09T04:01:05;19.70;99.90
18906;DHT22;9585;51.018;4.282;2023-07-09T04:03:33;19.70;99.90
18906;DHT22;9585;51.018;4.282;2023-07-09T04:06:00;19.70;99.90
18906;DHT22;9585;51.018;4.282;2023-07-09T04:08:28;19.60;99.90
18906;DHT22;9585;51.018;4.282;2023-07-09T04:11:01;19.60;99.90
18906;DHT22;9585;51.018;4.282;2023-07-09T04:13:29;19.60;99.90
18906;DHT22;9585;51.018;4.282;2023-07-09T04:15:57;19.60;99.90
18906;DHT22;9585;51.018;4.282;2023-07-09T04:18:24;19.60;99.90
18906;DHT22;9585;51.018;4.282;2023-07-09T04:20:52;19.60;99.90
18906;DHT22;9585;51.018;4.282;2023-07-09T04:23:20;19.70;99.90
18906;DHT22;9585;51.018;4.282;2023-07-09T04:25:48;19.70;99.90
18906;DHT22;9585;51.018;4.282;2023-07-09T04:28:17;19.60;99.90
18906;DHT22;9585;51.018;4.282;2023-07-09T04:30:49;19.60;99.90
18906;DHT22;9585;51.018;4.282;2023-07-09T04:33:17;19.60;99.90
18906;DHT22;9585;51.018;4.282;2023-07-09T04:35:45;19.60;99.90
18906;DHT22;9585;51.018;4.282;2023-07-09T04:38:13;19.60;99.90
18906;DHT22;9585;51.018;4.282;2023-07-09T04:40:41;19.70;99.90
18906;DHT22;9585;51.018;4.282;2023-07-09T04:43:09;19.80;99.90
18906;DHT22;9585;51.018;4.282;2023-07-09T04:45:38;19.90;99.90
18906;DHT22;9585;51.018;4.282;2023-07-09T04:48:06;20.00;99.90
18906;DHT22;9585;51.018;4.282;2023-07-09T04:50:34;20.10;99.90
18906;DHT22;9585;51.018;4.282;2023-07-09T04:53:01;20.20;99.90
18906;DHT22;9585;51.018;4.282;2023-07-09T04:55:29;20.40;99.90
18906;DHT22;9585;51.018;4.282;2023-07-09T04:57:57;20.50;99.90
18906;DHT22;9585;51.018;4.282;2023-07-09T05:00:24;20.60;99.90
18906;DHT22;9585;51.018;4.282;2023-07-09T05:02:53;20.70;99.90
18906;DHT22;9585;51.018;4.282;2023-07-09T05:05:22;20.80;99.90
18906;DHT22;9585;51.018;4.282;2023-07-09T05:07:49;20.70;99.90
18906;DHT22;9585;51.018;4.282;2023-07-09T05:10:17;20.80;99.90
18906;DHT22;9585;51.018;4.282;2023-07-09T05:12:49;20.80;99.90
18906;DHT22;9585;51.018;4.282;2023-07-09T05:15:17;20.80;99.90
18906;DHT22;9585;51.018;4.282;2023-07-09T05:17:46;20.90;99.90
18906;DHT22;9585;51.018;4.282;2023-07-09T05:20:16;21.00;99.90
18906;DHT22;9585;51.018;4.282;2023-07-09T05:22:43;21.10;99.90
18906;DHT22;9585;51.018;4.282;2023-07-09T05:25:11;21.30;99.90
18906;DHT22;9585;51.018;4.282;2023-07-09T05:27:39;21.40;99.90
18906;DHT22;9585;51.018;4.282;2023-07-09T05:30:07;21.70;99.90
18906;DHT22;9585;51.018;4.282;2023-07-09T05:32:36;22.20;99.90
18906;DHT22;9585;51.018;4.282;2023-07-09T05:35:05;22.70;99.90
18906;DHT22;9585;51.018;4.282;2023-07-09T05:37:35;23.00;99.90
18906;DHT22;9585;51.018;4.282;2023-07-09T05:40:04;23.40;99.90
18906;DHT22;9585;51.018;4.282;2023-07-09T05:42:32;23.90;99.90
18906;DHT22;9585;51.018;4.282;2023-07-09T05:44:59;24.70;99.90
18906;DHT22;9585;51.018;4.282;2023-07-09T05:47:27;25.40;99.90
18906;DHT22;9585;51.018;4.282;2023-07-09T05:49:54;26.10;99.90
18906;DHT22;9585;51.018;4.282;2023-07-09T05:52:23;26.80;99.90
18906;DHT22;9585;51.018;4.282;2023-07-09T05:54:59;26.90;99.90
18906;DHT22;9585;51.018;4.282;2023-07-09T05:57:27;27.20;99.90
18906;DHT22;9585;51.018;4.282;2023-07-09T05:59:55;27.50;99.90
18906;DHT22;9585;51.018;4.282;2023-07-09T06:02:22;27.80;99.90
18906;DHT22;9585;51.018;4.282;2023-07-09T06:04:50;27.90;99.90
18906;DHT22;9585;51.018;4.282;2023-07-09T06:07:18;28.20;99.90
18906;DHT22;9585;51.018;4.282;2023-07-09T06:09:46;28.50;99.90
18906;DHT22;9585;51.018;4.282;2023-07-09T06:12:15;28.80;99.90
18906;DHT22;9585;51.018;4.282;2023-07-09T06:14:43;29.50;99.90
18906;DHT22;9585;51.018;4.282;2023-07-09T06:17:10;30.00;99.90
18906;DHT22;9585;51.018;4.282;2023-07-09T06:19:38;30.40;99.90
18906;DHT22;9585;51.018;4.282;2023-07-09T06:22:06;31.00;99.90
18906;DHT22;9585;51.018;4.282;2023-07-09T06:24:33;31.40;99.90
18906;DHT22;9585;51.018;4.282;2023-07-09T06:27:01;31.60;99.90
18906;DHT22;9585;51.018;4.282;2023-07-09T06:29:30;31.80;99.90
18906;DHT22;9585;51.018;4.282;2023-07-09T06:31:58;31.90;99.90
18906;DHT22;9585;51.018;4.282;2023-07-09T06:34:25;31.30;99.90
18906;DHT22;9585;51.018;4.282;2023-07-09T06:36:53;31.30;99.90
18906;DHT22;9585;51.018;4.282;2023-07-09T06:39:21;31.70;99.90
18906;DHT22;9585;51.018;4.282;2023-07-09T06:41:49;31.80;99.90
18906;DHT22;9585;51.018;4.282;2023-07-09T06:44:17;31.90;99.90
18906;DHT22;9585;51.018;4.282;2023-07-09T06:46:47;32.30;99.90
18906;DHT22;9585;51.018;4.282;2023-07-09T06:49:25;32.60;99.90
18906;DHT22;9585;51.018;4.282;2023-07-09T06:51:52;32.80;99.90
18906;DHT22;9585;51.018;4.282;2023-07-09T06:54:20;32.40;99.90
18906;DHT22;9585;51.018;4.282;2023-07-09T06:56:48;32.10;99.90
18906;DHT22;9585;51.018;4.282;2023-07-09T06:59:15;32.20;99.90
18906;DHT22;9585;51.018;4.282;2023-07-09T07:01:43;32.10;99.90
18906;DHT22;9585;51.018;4.282;2023-07-09T07:04:12;32.30;99.90
18906;DHT22;9585;51.018;4.282;2023-07-09T07:06:41;32.70;99.90
18906;DHT22;9585;51.018;4.282;2023-07-09T07:09:09;32.90;99.90
18906;DHT22;9585;51.018;4.282;2023-07-09T07:11:37;33.10;99.90
18906;DHT22;9585;51.018;4.282;2023-07-09T07:14:04;32.60;99.90
18906;DHT22;9585;51.018;4.282;2023-07-09T07:16:32;32.20;99.90
18906;DHT22;9585;51.018;4.282;2023-07-09T07:19:03;31.70;99.90
18906;DHT22;9585;51.018;4.282;2023-07-09T07:21:33;31.20;99.90
18906;DHT22;9585;51.018;4.282;2023-07-09T07:24:00;31.10;99.90
18906;DHT22;9585;51.018;4.282;2023-07-09T07:26:29;30.90;99.90
18906;DHT22;9585;51.018;4.282;2023-07-09T07:28:56;30.90;99.90
18906;DHT22;9585;51.018;4.282;2023-07-09T07:31:24;30.90;99.90
18906;DHT22;9585;51.018;4.282;2023-07-09T07:33:52;31.10;99.90
18906;DHT22;9585;51.018;4.282;2023-07-09T07:36:20;31.90;99.90
18906;DHT22;9585;51.018;4.282;2023-07-09T07:38:49;32.00;99.90
18906;DHT22;9585;51.018;4.282;2023-07-09T07:41:16;31.60;99.90
18906;DHT22;9585;51.018;4.282;2023-07-09T07:43:44;31.10;99.90
18906;DHT22;9585;51.018;4.282;2023-07-09T07:46:12;31.00;99.90
18906;DHT22;9585;51.018;4.282;2023-07-09T07:48:40;31.00;99.90
18906;DHT22;9585;51.018;4.282;2023-07-09T07:51:08;30.70;99.90
18906;DHT22;9585;51.018;4.282;2023-07-09T07:53:35;30.40;99.90
18906;DHT22;9585;51.018;4.282;2023-07-09T07:56:05;30.50;99.90
18906;DHT22;9585;51.018;4.282;2023-07-09T07:58:33;30.90;99.90
18906;DHT22;9585;51.018;4.282;2023-07-09T08:01:00;31.40;99.90
18906;DHT22;9585;51.018;4.282;2023-07-09T08:03:28;31.70;99.90
18906;DHT22;9585;51.018;4.282;2023-07-09T08:05:55;31.60;99.90
18906;DHT22;9585;51.018;4.282;2023-07-09T08:08:23;31.00;99.90
18906;DHT22;9585;51.018;4.282;2023-07-09T08:10:51;30.80;99.90
18906;DHT22;9585;51.018;4.282;2023-07-09T08:13:22;31.30;99.90
18906;DHT22;9585;51.018;4.282;2023-07-09T08:15:50;31.80;99.90
18906;DHT22;9585;51.018;4.282;2023-07-09T08:18:18;31.70;99.90
18906;DHT22;9585;51.018;4.282;2023-07-09T08:20:45;31.90;99.90
18906;DHT22;9585;51.018;4.282;2023-07-09T08:23:13;31.70;99.90
18906;DHT22;9585;51.018;4.282;2023-07-09T08:25:40;31.70;99.90
18906;DHT22;9585;51.018;4.282;2023-07-09T08:28:08;32.00;99.90
18906;DHT22;9585;51.018;4.282;2023-07-09T08:30:37;32.10;99.90
18906;DHT22;9585;51.018;4.282;2023-07-09T08:33:05;32.50;99.90
18906;DHT22;9585;51.018;4.282;2023-07-09T08:35:33;32.50;99.90
18906;DHT22;9585;51.018;4.282;2023-07-09T08:38:01;32.80;99.90
18906;DHT22;9585;51.018;4.282;2023-07-09T08:40:29;32.70;99.90
18906;DHT22;9585;51.018;4.282;2023-07-09T08:43:05;33.00;99.90
18906;DHT22;9585;51.018;4.282;2023-07-09T08:45:42;32.70;99.90
18906;DHT22;9585;51.018;4.282;2023-07-09T08:48:18;32.40;99.90
18906;DHT22;9585;51.018;4.282;2023-07-09T08:50:49;32.10;99.90
18906;DHT22;9585;51.018;4.282;2023-07-09T08:53:19;32.00;99.90
18906;DHT22;9585;51.018;4.282;2023-07-09T08:55:50;31.60;99.90
18906;DHT22;9585;51.018;4.282;2023-07-09T08:58:23;31.50;99.90
18906;DHT22;9585;51.018;4.282;2023-07-09T09:00:54;31.40;99.90
18906;DHT22;9585;51.018;4.282;2023-07-09T09:03:30;31.40;99.90
18906;DHT22;9585;51.018;4.282;2023-07-09T09:06:01;31.60;99.90
18906;DHT22;9585;51.018;4.282;2023-07-09T09:08:39;31.80;99.90
18906;DHT22;9585;51.018;4.282;2023-07-09T09:11:14;31.80;99.90
18906;DHT22;9585;51.018;4.282;2023-07-09T09:13:43;31.80;99.90
18906;DHT22;9585;51.018;4.282;2023-07-09T09:16:21;31.70;99.90
18906;DHT22;9585;51.018;4.282;2023-07-09T09:18:50;31.70;99.90
18906;DHT22;9585;51.018;4.282;2023-07-09T09:21:24;31.50;99.90
18906;DHT22;9585;51.018;4.282;2023-07-09T09:23:56;30.90;99.90
18906;DHT22;9585;51.018;4.282;2023-07-09T09:26:32;30.50;99.90
18906;DHT22;9585;51.018;4.282;2023-07-09T09:29:00;30.30;99.90
18906;DHT22;9585;51.018;4.282;2023-07-09T09:31:30;30.00;99.90
18906;DHT22;9585;51.018;4.282;2023-07-09T09:33:57;29.50;99.90
18906;DHT22;9585;51.018;4.282;2023-07-09T09:36:26;29.10;99.90
18906;DHT22;9585;51.018;4.282;2023-07-09T09:38:54;29.10;99.90
18906;DHT22;9585;51.018;4.282;2023-07-09T09:41:24;29.10;99.90
18906;DHT22;9585;51.018;4.282;2023-07-09T09:43:53;29.20;99.90
18906;DHT22;9585;51.018;4.282;2023-07-09T09:46:26;29.40;99.90
18906;DHT22;9585;51.018;4.282;2023-07-09T09:48:58;29.30;99.90
18906;DHT22;9585;51.018;4.282;2023-07-09T09:51:27;29.30;99.90
18906;DHT22;9585;51.018;4.282;2023-07-09T09:53:58;29.30;99.90
18906;DHT22;9585;51.018;4.282;2023-07-09T09:56:28;29.40;99.90
18906;DHT22;9585;51.018;4.282;2023-07-09T09:58:57;29.60;99.90
18906;DHT22;9585;51.018;4.282;2023-07-09T10:01:29;29.80;99.90
18906;DHT22;9585;51.018;4.282;2023-07-09T10:04:00;29.80;99.90
18906;DHT22;9585;51.018;4.282;2023-07-09T10:06:34;29.50;99.90
18906;DHT22;9585;51.018;4.282;2023-07-09T10:09:10;29.40;99.90
18906;DHT22;9585;51.018;4.282;2023-07-09T10:11:47;29.40;99.90
18906;DHT22;9585;51.018;4.282;2023-07-09T10:14:40;29.40;99.90
18906;DHT22;9585;51.018;4.282;2023-07-09T10:17:18;29.10;99.90
18906;DHT22;9585;51.018;4.282;2023-07-09T10:19:56;29.10;99.90
18906;DHT22;9585;51.018;4.282;2023-07-09T10:22:39;28.90;99.90
18906;DHT22;9585;51.018;4.282;2023-07-09T10:25:23;28.80;99.90
18906;DHT22;9585;51.018;4.282;2023-07-09T10:28:17;28.40;99.90
18906;DHT22;9585;51.018;4.282;2023-07-09T10:30:52;28.30;99.90
18906;DHT22;9585;51.018;4.282;2023-07-09T10:33:28;28.10;99.90
18906;DHT22;9585;51.018;4.282;2023-07-09T10:36:11;27.90;99.90
18906;DHT22;9585;51.018;4.282;2023-07-09T10:38:49;27.80;99.90
18906;DHT22;9585;51.018;4.282;2023-07-09T10:41:18;27.70;99.90
18906;DHT22;9585;51.018;4.282;2023-07-09T10:43:50;27.60;99.90
18906;DHT22;9585;51.018;4.282;2023-07-09T10:46:24;27.60;99.90
18906;DHT22;9585;51.018;4.282;2023-07-09T10:48:53;27.40;99.90
18906;DHT22;9585;51.018;4.282;2023-07-09T10:51:28;27.10;99.90
18906;DHT22;9585;51.018;4.282;2023-07-09T10:53:58;27.20;99.90
18906;DHT22;9585;51.018;4.282;2023-07-09T10:56:33;27.10;99.90
18906;DHT22;9585;51.018;4.282;2023-07-09T10:59:06;27.00;99.90
18906;DHT22;9585;51.018;4.282;2023-07-09T11:01:40;27.10;99.90
18906;DHT22;9585;51.018;4.282;2023-07-09T11:04:11;27.10;99.90
18906;DHT22;9585;51.018;4.282;2023-07-09T11:06:46;27.40;99.90
18906;DHT22;9585;51.018;4.282;2023-07-09T11:09:22;27.40;99.90
18906;DHT22;9585;51.018;4.282;2023-07-09T11:11:56;27.60;99.90
18906;DHT22;9585;51.018;4.282;2023-07-09T11:14:30;27.90;99.90
18906;DHT22;9585;51.018;4.282;2023-07-09T11:17:01;28.00;99.90
18906;DHT22;9585;51.018;4.282;2023-07-09T11:19:29;28.00;99.90
18906;DHT22;9585;51.018;4.282;2023-07-09T11:22:03;28.10;99.90
18906;DHT22;9585;51.018;4.282;2023-07-09T11:24:36;28.10;99.90
18906;DHT22;9585;51.018;4.282;2023-07-09T11:27:20;28.00;99.90
18906;DHT22;9585;51.018;4.282;2023-07-09T11:29:56;27.70;99.90
18906;DHT22;9585;51.018;4.282;2023-07-09T11:32:26;27.70;99.90
18906;DHT22;9585;51.018;4.282;2023-07-09T11:34:54;27.50;99.90
18906;DHT22;9585;51.018;4.282;2023-07-09T11:37:25;27.30;99.90
18906;DHT22;9585;51.018;4.282;2023-07-09T11:39:53;27.20;99.90
18906;DHT22;9585;51.018;4.282;2023-07-09T11:42:32;27.10;99.90
18906;DHT22;9585;51.018;4.282;2023-07-09T11:45:09;26.90;99.90
18906;DHT22;9585;51.018;4.282;2023-07-09T11:47:41;27.00;99.90
18906;DHT22;9585;51.018;4.282;2023-07-09T11:50:20;27.10;99.90
18906;DHT22;9585;51.018;4.282;2023-07-09T11:52:55;26.90;99.90
18906;DHT22;9585;51.018;4.282;2023-07-09T11:55:28;26.80;99.90
18906;DHT22;9585;51.018;4.282;2023-07-09T11:57:59;26.50;99.90
18906;DHT22;9585;51.018;4.282;2023-07-09T12:00:28;26.40;99.90
18906;DHT22;9585;51.018;4.282;2023-07-09T12:02:57;26.30;99.90
18906;DHT22;9585;51.018;4.282;2023-07-09T12:05:28;26.20;99.90
18906;DHT22;9585;51.018;4.282;2023-07-09T12:07:58;26.10;99.90
18906;DHT22;9585;51.018;4.282;2023-07-09T12:10:31;26.00;99.90
18906;DHT22;9585;51.018;4.282;2023-07-09T12:13:00;25.90;99.90
18906;DHT22;9585;51.018;4.282;2023-07-09T12:15:30;25.80;99.90
18906;DHT22;9585;51.018;4.282;2023-07-09T12:18:00;25.70;99.90
18906;DHT22;9585;51.018;4.282;2023-07-09T12:20:31;25.50;99.90
18906;DHT22;9585;51.018;4.282;2023-07-09T12:23:10;25.40;99.90
18906;DHT22;9585;51.018;4.282;2023-07-09T12:25:38;25.40;99.90
18906;DHT22;9585;51.018;4.282;2023-07-09T12:28:13;25.30;99.90
18906;DHT22;9585;51.018;4.282;2023-07-09T12:30:45;25.00;99.90
18906;DHT22;9585;51.018;4.282;2023-07-09T12:33:16;24.90;99.90
18906;DHT22;9585;51.018;4.282;2023-07-09T12:35:45;25.00;99.90
18906;DHT22;9585;51.018;4.282;2023-07-09T12:38:32;25.00;99.90
18906;DHT22;9585;51.018;4.282;2023-07-09T12:41:18;25.00;99.90
18906;DHT22;9585;51.018;4.282;2023-07-09T12:43:47;24.70;99.90
18906;DHT22;9585;51.018;4.282;2023-07-09T12:46:15;24.20;99.90
18906;DHT22;9585;51.018;4.282;2023-07-09T12:48:44;23.80;99.90
18906;DHT22;9585;51.018;4.282;2023-07-09T12:51:18;23.50;99.90
18906;DHT22;9585;51.018;4.282;2023-07-09T12:54:02;23.30;99.90
18906;DHT22;9585;51.018;4.282;2023-07-09T12:56:34;23.30;99.90
18906;DHT22;9585;51.018;4.282;2023-07-09T12:59:15;23.20;99.90
18906;DHT22;9585;51.018;4.282;2023-07-09T13:01:55;22.90;99.90
18906;DHT22;9585;51.018;4.282;2023-07-09T13:04:29;22.60;99.90
18906;DHT22;9585;51.018;4.282;2023-07-09T13:06:58;22.30;99.90
18906;DHT22;9585;51.018;4.282;2023-07-09T13:09:28;22.10;99.90
18906;DHT22;9585;51.018;4.282;2023-07-09T13:11:57;22.10;99.90
18906;DHT22;9585;51.018;4.282;2023-07-09T13:14:27;22.00;99.90
18906;DHT22;9585;51.018;4.282;2023-07-09T13:17:03;22.10;99.90
18906;DHT22;9585;51.018;4.282;2023-07-09T13:19:31;22.30;99.90
18906;DHT22;9585;51.018;4.282;2023-07-09T13:22:00;22.50;99.90
18906;DHT22;9585;51.018;4.282;2023-07-09T13:24:30;22.60;99.90
18906;DHT22;9585;51.018;4.282;2023-07-09T13:27:00;22.70;99.90
18906;DHT22;9585;51.018;4.282;2023-07-09T13:29:31;22.70;99.90
18906;DHT22;9585;51.018;4.282;2023-07-09T13:31:58;22.60;99.90
18906;DHT22;9585;51.018;4.282;2023-07-09T13:34:27;22.50;99.90
18906;DHT22;9585;51.018;4.282;2023-07-09T13:36:57;22.70;99.90
18906;DHT22;9585;51.018;4.282;2023-07-09T13:39:25;22.70;99.90
18906;DHT22;9585;51.018;4.282;2023-07-09T13:41:54;22.70;99.90
18906;DHT22;9585;51.018;4.282;2023-07-09T13:44:23;22.80;99.90
18906;DHT22;9585;51.018;4.282;2023-07-09T13:46:52;22.90;99.90
18906;DHT22;9585;51.018;4.282;2023-07-09T13:49:26;22.80;99.90
18906;DHT22;9585;51.018;4.282;2023-07-09T13:51:57;22.70;99.90
18906;DHT22;9585;51.018;4.282;2023-07-09T13:54:28;22.90;99.90
18906;DHT22;9585;51.018;4.282;2023-07-09T13:57:03;23.10;99.90
18906;DHT22;9585;51.018;4.282;2023-07-09T13:59:31;23.30;99.90
18906;DHT22;9585;51.018;4.282;2023-07-09T14:01:59;23.30;99.90
18906;DHT22;9585;51.018;4.282;2023-07-09T14:04:28;23.20;99.90
18906;DHT22;9585;51.018;4.282;2023-07-09T14:06:55;23.20;99.90
18906;DHT22;9585;51.018;4.282;2023-07-09T14:09:23;23.20;99.90
18906;DHT22;9585;51.018;4.282;2023-07-09T14:11:52;23.20;99.90
18906;DHT22;9585;51.018;4.282;2023-07-09T14:14:26;23.30;99.90
18906;DHT22;9585;51.018;4.282;2023-07-09T14:16:56;23.50;99.90
18906;DHT22;9585;51.018;4.282;2023-07-09T14:19:25;23.80;99.90
18906;DHT22;9585;51.018;4.282;2023-07-09T14:21:54;24.00;99.90
18906;DHT22;9585;51.018;4.282;2023-07-09T14:24:25;24.20;99.90
18906;DHT22;9585;51.018;4.282;2023-07-09T14:26:54;24.30;99.90
18906;DHT22;9585;51.018;4.282;2023-07-09T14:29:24;24.50;99.90
18906;DHT22;9585;51.018;4.282;2023-07-09T14:31:53;24.70;99.90
18906;DHT22;9585;51.018;4.282;2023-07-09T14:34:22;24.70;99.90
18906;DHT22;9585;51.018;4.282;2023-07-09T14:36:52;24.60;99.90
18906;DHT22;9585;51.018;4.282;2023-07-09T14:39:20;24.60;99.90
18906;DHT22;9585;51.018;4.282;2023-07-09T14:41:49;24.60;99.90
18906;DHT22;9585;51.018;4.282;2023-07-09T14:44:25;24.60;99.90
18906;DHT22;9585;51.018;4.282;2023-07-09T14:46:56;24.40;99.90
18906;DHT22;9585;51.018;4.282;2023-07-09T14:49:24;24.30;99.90
18906;DHT22;9585;51.018;4.282;2023-07-09T14:51:52;24.20;99.90
18906;DHT22;9585;51.018;4.282;2023-07-09T14:54:24;24.20;99.90
18906;DHT22;9585;51.018;4.282;2023-07-09T14:56:53;24.20;99.90
18906;DHT22;9585;51.018;4.282;2023-07-09T14:59:21;24.20;99.90
18906;DHT22;9585;51.018;4.282;2023-07-09T15:01:52;24.20;99.90
18906;DHT22;9585;51.018;4.282;2023-07-09T15:04:28;24.20;99.90
18906;DHT22;9585;51.018;4.282;2023-07-09T15:06:57;24.40;99.90
18906;DHT22;9585;51.018;4.282;2023-07-09T15:09:26;24.50;99.90
18906;DHT22;9585;51.018;4.282;2023-07-09T15:11:56;24.70;99.90
18906;DHT22;9585;51.018;4.282;2023-07-09T15:14:27;24.70;99.90
18906;DHT22;9585;51.018;4.282;2023-07-09T15:16:57;24.80;99.90
18906;DHT22;9585;51.018;4.282;2023-07-09T15:19:25;24.50;99.90
18906;DHT22;9585;51.018;4.282;2023-07-09T15:21:53;24.30;99.90
18906;DHT22;9585;51.018;4.282;2023-07-09T15:24:24;24.20;99.90
18906;DHT22;9585;51.018;4.282;2023-07-09T15:26:54;24.20;99.90
18906;DHT22;9585;51.018;4.282;2023-07-09T15:29:23;24.20;99.90
18906;DHT22;9585;51.018;4.282;2023-07-09T15:31:51;24.40;99.90
18906;DHT22;9585;51.018;4.282;2023-07-09T15:34:21;24.60;99.90
18906;DHT22;9585;51.018;4.282;2023-07-09T15:36:51;24.70;99.90
18906;DHT22;9585;51.018;4.282;2023-07-09T15:39:20;24.60;99.90
18906;DHT22;9585;51.018;4.282;2023-07-09T15:41:48;24.50;99.90
18906;DHT22;9585;51.018;4.282;2023-07-09T15:44:17;24.30;99.90
18906;DHT22;9585;51.018;4.282;2023-07-09T15:46:55;24.10;99.90
18906;DHT22;9585;51.018;4.282;2023-07-09T15:49:26;24.10;99.90
18906;DHT22;9585;51.018;4.282;2023-07-09T15:51:53;24.10;99.90
18906;DHT22;9585;51.018;4.282;2023-07-09T15:54:23;24.10;99.90
18906;DHT22;9585;51.018;4.282;2023-07-09T15:56:52;24.10;99.90
18906;DHT22;9585;51.018;4.282;2023-07-09T15:59:27;24.10;99.90
18906;DHT22;9585;51.018;4.282;2023-07-09T16:01:55;24.10;99.90
18906;DHT22;9585;51.018;4.282;2023-07-09T16:04:25;24.10;99.90
18906;DHT22;9585;51.018;4.282;2023-07-09T16:06:53;24.10;99.90